sensor_id;sensor_type;location;lat;lon;timestamp;pressure;altitude;pressure_sealevel;temperature;humidity
21988;BME280;11158;53.404;-1.510;2022-07-01T00:01:23;100171.06;;;16.80;62.38
21988;BME280;11158;53.404;-1.510;2022-07-01T00:03:48;100176.47;;;16.61;62.80
21988;BME280;11158;53.404;-1.510;2022-07-01T00:06:16;100172.72;;;16.92;62.39
21988;BME280;11158;53.404;-1.510;2022-07-01T00:08:42;100174.97;;;17.07;62.14
21988;BME280;11158;53.404;-1.510;2022-07-01T00:11:08;100175.91;;;17.13;61.68
21988;BME280;11158;53.404;-1.510;2022-07-01T00:13:34;100180.50;;;17.24;61.50
21988;BME280;11158;53.404;-1.510;2022-07-01T00:16:00;100174.06;;;17.37;60.90
21988;BME280;11158;53.404;-1.510;2022-07-01T00:18:26;100180.75;;;17.34;60.77
21988;BME280;11158;53.404;-1.510;2022-07-01T00:20:51;100178.88;;;17.23;61.31
21988;BME280;11158;53.404;-1.510;2022-07-01T00:23:18;100178.88;;;17.23;61.34
21988;BME280;11158;53.404;-1.510;2022-07-01T00:25:45;100179.47;;;17.13;61.45
21988;BME280;11158;53.404;-1.510;2022-07-01T00:28:11;100171.31;;;17.02;62.13
21988;BME280;11158;53.404;-1.510;2022-07-01T00:30:38;100175.06;;;16.89;62.27
21988;BME280;11158;53.404;-1.510;2022-07-01T00:33:04;100168.50;;;16.96;61.89
21988;BME280;11158;53.404;-1.510;2022-07-01T00:35:30;100177.09;;;17.05;62.02
21988;BME280;11158;53.404;-1.510;2022-07-01T00:37:56;100170.88;;;17.05;62.14
21988;BME280;11158;53.404;-1.510;2022-07-01T00:40:23;100173.44;;;17.00;61.70
21988;BME280;11158;53.404;-1.510;2022-07-01T00:43:04;100161.44;;;16.84;62.65
21988;BME280;11158;53.404;-1.510;2022-07-01T00:45:30;100163.78;;;16.80;62.83
21988;BME280;11158;53.404;-1.510;2022-07-01T00:47:56;100161.91;;;16.92;62.28
21988;BME280;11158;53.404;-1.510;2022-07-01T00:50:22;100154.59;;;16.81;62.75
21988;BME280;11158;53.404;-1.510;2022-07-01T00:52:48;100163.13;;;16.66;63.05
21988;BME280;11158;53.404;-1.510;2022-07-01T00:55:14;100160.97;;;16.57;63.43
21988;BME280;11158;53.404;-1.510;2022-07-01T00:57:41;100153.41;;;16.77;62.91
21988;BME280;11158;53.404;-1.510;2022-07-01T01:00:11;100161.47;;;16.95;62.25
21988;BME280;11158;53.404;-1.510;2022-07-01T01:02:37;100153.22;;;16.90;62.12
21988;BME280;11158;53.404;-1.510;2022-07-01T01:05:05;100158.63;;;16.90;62.01
21988;BME280;11158;53.404;-1.510;2022-07-01T01:07:32;100160.63;;;16.65;62.20
21988;BME280;11158;53.404;-1.510;2022-07-01T01:10:02;100161.78;;;16.87;61.90
21988;BME280;11158;53.404;-1.510;2022-07-01T01:12:28;100158.28;;;16.99;61.36
21988;BME280;11158;53.404;-1.510;2022-07-01T01:14:55;100144.25;;;17.32;60.42
21988;BME280;11158;53.404;-1.510;2022-07-01T01:17:23;100149.97;;;17.35;59.93
21988;BME280;11158;53.404;-1.510;2022-07-01T01:19:50;100148.34;;;17.46;59.64
21988;BME280;11158;53.404;-1.510;2022-07-01T01:22:16;100153.75;;;17.34;59.74
21988;BME280;11158;53.404;-1.510;2022-07-01T01:24:43;100154.47;;;17.30;59.65
21988;BME280;11158;53.404;-1.510;2022-07-01T01:27:09;100140.91;;;17.06;60.31
21988;BME280;11158;53.404;-1.510;2022-07-01T01:29:35;100140.56;;;17.03;60.18
21988;BME280;11158;53.404;-1.510;2022-07-01T01:32:04;100140.81;;;17.13;59.78
21988;BME280;11158;53.404;-1.510;2022-07-01T01:34:34;100141.75;;;17.07;60.29
21988;BME280;11158;53.404;-1.510;2022-07-01T01:37:03;100142.47;;;17.14;59.38
21988;BME280;11158;53.404;-1.510;2022-07-01T01:39:29;100146.06;;;16.84;60.45
21988;BME280;11158;53.404;-1.510;2022-07-01T01:41:55;100142.78;;;16.94;60.15
21988;BME280;11158;53.404;-1.510;2022-07-01T01:44:21;100142.56;;;17.07;59.92
21988;BME280;11158;53.404;-1.510;2022-07-01T01:46:46;100143.16;;;16.98;60.19
21988;BME280;11158;53.404;-1.510;2022-07-01T01:49:12;100143.84;;;16.93;60.29
21988;BME280;11158;53.404;-1.510;2022-07-01T01:51:38;100139.88;;;16.95;60.17
21988;BME280;11158;53.404;-1.510;2022-07-01T01:54:04;100141.59;;;16.90;60.02
21988;BME280;11158;53.404;-1.510;2022-07-01T01:56:30;100142.78;;;16.94;59.82
21988;BME280;11158;53.404;-1.510;2022-07-01T01:58:57;100140.13;;;16.64;60.30
21988;BME280;11158;53.404;-1.510;2022-07-01T02:01:23;100144.72;;;16.75;60.50
21988;BME280;11158;53.404;-1.510;2022-07-01T02:03:50;100151.00;;;16.87;60.26
21988;BME280;11158;53.404;-1.510;2022-07-01T02:06:17;100154.16;;;16.84;60.54
21988;BME280;11158;53.404;-1.510;2022-07-01T02:08:44;100142.38;;;16.79;60.73
21988;BME280;11158;53.404;-1.510;2022-07-01T02:11:10;100142.19;;;16.80;60.72
21988;BME280;11158;53.404;-1.510;2022-07-01T02:13:36;100145.94;;;16.79;60.85
21988;BME280;11158;53.404;-1.510;2022-07-01T02:16:02;100143.06;;;16.74;60.80
21988;BME280;11158;53.404;-1.510;2022-07-01T02:18:28;100143.25;;;16.79;60.64
21988;BME280;11158;53.404;-1.510;2022-07-01T02:20:54;100144.63;;;16.51;61.00
21988;BME280;11158;53.404;-1.510;2022-07-01T02:23:20;100142.59;;;16.65;60.42
21988;BME280;11158;53.404;-1.510;2022-07-01T02:25:46;100140.72;;;16.78;59.80
21988;BME280;11158;53.404;-1.510;2022-07-01T02:28:12;100145.25;;;16.95;59.26
21988;BME280;11158;53.404;-1.510;2022-07-01T02:30:37;100146.41;;;16.88;59.43
21988;BME280;11158;53.404;-1.510;2022-07-01T02:33:05;100142.63;;;16.77;58.87
21988;BME280;11158;53.404;-1.510;2022-07-01T02:35:32;100142.31;;;16.55;59.90
21988;BME280;11158;53.404;-1.510;2022-07-01T02:37:58;100146.25;;;16.41;60.39
21988;BME280;11158;53.404;-1.510;2022-07-01T02:40:24;100150.38;;;16.43;60.45
21988;BME280;11158;53.404;-1.510;2022-07-01T02:42:50;100148.66;;;16.30;60.79
21988;BME280;11158;53.404;-1.510;2022-07-01T02:45:16;100144.56;;;16.28;61.32
21988;BME280;11158;53.404;-1.510;2022-07-01T02:47:42;100141.72;;;16.23;61.26
21988;BME280;11158;53.404;-1.510;2022-07-01T02:50:09;100151.88;;;16.39;60.81
21988;BME280;11158;53.404;-1.510;2022-07-01T02:52:36;100154.97;;;16.54;59.75
21988;BME280;11158;53.404;-1.510;2022-07-01T02:55:06;100150.19;;;16.57;59.30
21988;BME280;11158;53.404;-1.510;2022-07-01T02:57:32;100163.06;;;16.54;59.54
21988;BME280;11158;53.404;-1.510;2022-07-01T02:59:59;100163.34;;;16.65;59.12
21988;BME280;11158;53.404;-1.510;2022-07-01T03:02:25;100168.38;;;16.61;59.43
21988;BME280;11158;53.404;-1.510;2022-07-01T03:04:52;100170.69;;;16.58;59.22
21988;BME280;11158;53.404;-1.510;2022-07-01T03:07:19;100169.28;;;16.55;59.47
21988;BME280;11158;53.404;-1.510;2022-07-01T03:09:46;100169.22;;;16.73;59.13
21988;BME280;11158;53.404;-1.510;2022-07-01T03:12:13;100161.94;;;16.74;59.22
21988;BME280;11158;53.404;-1.510;2022-07-01T03:15:12;100172.63;;;16.69;59.86
21988;BME280;11158;53.404;-1.510;2022-07-01T03:17:39;100177.69;;;16.65;59.94
21988;BME280;11158;53.404;-1.510;2022-07-01T03:20:11;100181.19;;;16.66;60.14
21988;BME280;11158;53.404;-1.510;2022-07-01T03:22:37;100189.16;;;16.61;60.07
21988;BME280;11158;53.404;-1.510;2022-07-01T03:25:04;100183.97;;;16.59;60.40
21988;BME280;11158;53.404;-1.510;2022-07-01T03:27:31;100182.88;;;16.48;60.72
21988;BME280;11158;53.404;-1.510;2022-07-01T03:29:59;100189.00;;;16.55;60.31
21988;BME280;11158;53.404;-1.510;2022-07-01T03:32:25;100190.50;;;16.51;59.98
21988;BME280;11158;53.404;-1.510;2022-07-01T03:34:52;100179.41;;;16.29;61.15
21988;BME280;11158;53.404;-1.510;2022-07-01T03:37:19;100190.75;;;16.50;60.28
21988;BME280;11158;53.404;-1.510;2022-07-01T03:39:47;100182.41;;;16.51;60.10
21988;BME280;11158;53.404;-1.510;2022-07-01T03:42:13;100192.13;;;16.41;60.14
21988;BME280;11158;53.404;-1.510;2022-07-01T03:44:39;100191.97;;;16.36;60.09
21988;BME280;11158;53.404;-1.510;2022-07-01T03:47:05;100193.22;;;16.33;60.69
21988;BME280;11158;53.404;-1.510;2022-07-01T03:49:35;100190.75;;;16.50;60.18
21988;BME280;11158;53.404;-1.510;2022-07-01T03:52:04;100189.19;;;16.72;59.52
21988;BME280;11158;53.404;-1.510;2022-07-01T03:54:30;100194.47;;;16.98;58.58
21988;BME280;11158;53.404;-1.510;2022-07-01T03:57:07;100208.38;;;16.83;58.96
21988;BME280;11158;53.404;-1.510;2022-07-01T03:59:38;100197.75;;;17.00;58.85
21988;BME280;11158;53.404;-1.510;2022-07-01T04:02:05;100202.09;;;17.01;58.83
21988;BME280;11158;53.404;-1.510;2022-07-01T04:04:32;100195.69;;;16.53;59.85
21988;BME280;11158;53.404;-1.510;2022-07-01T04:07:00;100198.53;;;16.88;58.71
21988;BME280;11158;53.404;-1.510;2022-07-01T04:09:26;100196.44;;;16.72;59.13
21988;BME280;11158;53.404;-1.510;2022-07-01T04:11:52;100210.78;;;16.72;59.55
21988;BME280;11158;53.404;-1.510;2022-07-01T04:14:18;100205.84;;;17.00;58.87
21988;BME280;11158;53.404;-1.510;2022-07-01T04:16:45;100204.94;;;17.29;57.74
21988;BME280;11158;53.404;-1.510;2022-07-01T04:19:11;100216.00;;;17.40;57.27
21988;BME280;11158;53.404;-1.510;2022-07-01T04:21:38;100220.69;;;17.56;57.04
21988;BME280;11158;53.404;-1.510;2022-07-01T04:24:22;100222.59;;;17.67;56.43
21988;BME280;11158;53.404;-1.510;2022-07-01T04:26:51;100219.50;;;17.64;56.67
21988;BME280;11158;53.404;-1.510;2022-07-01T04:29:18;100220.22;;;17.59;56.92
21988;BME280;11158;53.404;-1.510;2022-07-01T04:31:44;100220.81;;;17.73;56.66
21988;BME280;11158;53.404;-1.510;2022-07-01T04:34:10;100220.00;;;17.84;55.99
21988;BME280;11158;53.404;-1.510;2022-07-01T04:36:37;100222.69;;;17.72;56.76
21988;BME280;11158;53.404;-1.510;2022-07-01T04:39:03;100225.28;;;17.91;56.77
21988;BME280;11158;53.404;-1.510;2022-07-01T04:41:30;100226.94;;;18.04;55.97
21988;BME280;11158;53.404;-1.510;2022-07-01T04:44:14;100233.06;;;17.75;56.17
21988;BME280;11158;53.404;-1.510;2022-07-01T04:46:40;100230.09;;;17.77;56.45
21988;BME280;11158;53.404;-1.510;2022-07-01T04:49:06;100239.72;;;17.73;56.72
21988;BME280;11158;53.404;-1.510;2022-07-01T04:51:32;100234.59;;;17.95;56.55
21988;BME280;11158;53.404;-1.510;2022-07-01T04:54:09;100241.22;;;18.28;55.81
21988;BME280;11158;53.404;-1.510;2022-07-01T04:56:36;100236.13;;;18.43;55.60
21988;BME280;11158;53.404;-1.510;2022-07-01T04:59:02;100235.63;;;18.46;55.17
21988;BME280;11158;53.404;-1.510;2022-07-01T05:01:30;100242.81;;;18.52;54.87
21988;BME280;11158;53.404;-1.510;2022-07-01T05:03:58;100239.53;;;18.50;55.16
21988;BME280;11158;53.404;-1.510;2022-07-01T05:06:24;100241.00;;;18.70;54.83
21988;BME280;11158;53.404;-1.510;2022-07-01T05:08:51;100246.03;;;18.78;54.51
21988;BME280;11158;53.404;-1.510;2022-07-01T05:11:17;100241.56;;;19.00;53.88
21988;BME280;11158;53.404;-1.510;2022-07-01T05:13:43;100240.38;;;19.25;53.51
21988;BME280;11158;53.404;-1.510;2022-07-01T05:16:10;100248.09;;;19.50;53.54
21988;BME280;11158;53.404;-1.510;2022-07-01T05:18:39;100246.63;;;19.76;52.92
21988;BME280;11158;53.404;-1.510;2022-07-01T05:21:24;100245.69;;;19.87;52.08
21988;BME280;11158;53.404;-1.510;2022-07-01T05:24:08;100238.66;;;19.70;51.73
21988;BME280;11158;53.404;-1.510;2022-07-01T05:26:34;100239.50;;;19.70;52.35
21988;BME280;11158;53.404;-1.510;2022-07-01T05:29:00;100232.16;;;19.37;53.61
21988;BME280;11158;53.404;-1.510;2022-07-01T05:31:25;100236.81;;;19.08;54.62
21988;BME280;11158;53.404;-1.510;2022-07-01T05:33:52;100229.47;;;19.20;54.17
21988;BME280;11158;53.404;-1.510;2022-07-01T05:36:17;100229.19;;;20.55;51.87
21988;BME280;11158;53.404;-1.510;2022-07-01T05:38:43;100213.47;;;21.81;48.11
21988;BME280;11158;53.404;-1.510;2022-07-01T05:41:09;100213.16;;;21.78;48.05
21988;BME280;11158;53.404;-1.510;2022-07-01T05:43:34;100213.94;;;21.68;48.49
21988;BME280;11158;53.404;-1.510;2022-07-01T05:46:00;100210.53;;;21.50;48.28
21988;BME280;11158;53.404;-1.510;2022-07-01T05:48:26;100216.84;;;21.56;48.22
21988;BME280;11158;53.404;-1.510;2022-07-01T05:50:53;100220.16;;;21.31;48.45
21988;BME280;11158;53.404;-1.510;2022-07-01T05:53:19;100214.56;;;21.10;49.29
21988;BME280;11158;53.404;-1.510;2022-07-01T05:55:45;100208.59;;;21.83;47.96
21988;BME280;11158;53.404;-1.510;2022-07-01T05:58:11;100209.03;;;22.17;47.36
21988;BME280;11158;53.404;-1.510;2022-07-01T06:00:41;100210.25;;;22.52;45.69
21988;BME280;11158;53.404;-1.510;2022-07-01T06:03:11;100204.25;;;22.50;46.36
21988;BME280;11158;53.404;-1.510;2022-07-01T06:05:38;100195.63;;;22.84;45.44
21988;BME280;11158;53.404;-1.510;2022-07-01T06:08:05;100205.72;;;22.10;46.65
21988;BME280;11158;53.404;-1.510;2022-07-01T06:10:31;100205.25;;;22.24;46.58
21988;BME280;11158;53.404;-1.510;2022-07-01T06:12:58;100200.78;;;22.80;44.41
21988;BME280;11158;53.404;-1.510;2022-07-01T06:15:24;100200.19;;;22.48;45.80
21988;BME280;11158;53.404;-1.510;2022-07-01T06:17:51;100191.53;;;22.92;44.44
21988;BME280;11158;53.404;-1.510;2022-07-01T06:20:17;100196.94;;;22.66;43.81
21988;BME280;11158;53.404;-1.510;2022-07-01T06:22:43;100199.88;;;22.34;45.69
21988;BME280;11158;53.404;-1.510;2022-07-01T06:25:09;100201.25;;;22.47;45.42
21988;BME280;11158;53.404;-1.510;2022-07-01T06:27:42;100195.66;;;23.25;44.53
21988;BME280;11158;53.404;-1.510;2022-07-01T06:30:09;100192.91;;;23.56;43.64
21988;BME280;11158;53.404;-1.510;2022-07-01T06:32:35;100198.97;;;24.28;42.15
21988;BME280;11158;53.404;-1.510;2022-07-01T06:35:00;100187.31;;;24.07;42.11
21988;BME280;11158;53.404;-1.510;2022-07-01T06:37:26;100198.53;;;24.65;41.24
21988;BME280;11158;53.404;-1.510;2022-07-01T06:39:52;100193.16;;;26.06;37.60
21988;BME280;11158;53.404;-1.510;2022-07-01T06:42:17;100186.53;;;26.12;37.33
21988;BME280;11158;53.404;-1.510;2022-07-01T06:44:43;100208.50;;;24.85;39.51
21988;BME280;11158;53.404;-1.510;2022-07-01T06:47:09;100204.09;;;23.49;41.89
21988;BME280;11158;53.404;-1.510;2022-07-01T06:49:35;100207.59;;;22.00;47.06
21988;BME280;11158;53.404;-1.510;2022-07-01T06:52:01;100201.28;;;22.52;45.54
21988;BME280;11158;53.404;-1.510;2022-07-01T06:54:28;100203.53;;;22.91;43.76
21988;BME280;11158;53.404;-1.510;2022-07-01T06:56:54;100203.47;;;23.93;41.55
21988;BME280;11158;53.404;-1.510;2022-07-01T06:59:19;100201.34;;;23.75;40.82
21988;BME280;11158;53.404;-1.510;2022-07-01T07:01:45;100204.22;;;24.69;40.48
21988;BME280;11158;53.404;-1.510;2022-07-01T07:04:11;100188.66;;;28.04;34.05
21988;BME280;11158;53.404;-1.510;2022-07-01T07:06:37;100178.66;;;30.11;30.27
21988;BME280;11158;53.404;-1.510;2022-07-01T07:09:03;100171.88;;;32.07;27.16
21988;BME280;11158;53.404;-1.510;2022-07-01T07:11:28;100179.94;;;31.91;26.80
21988;BME280;11158;53.404;-1.510;2022-07-01T07:13:54;100176.63;;;31.03;28.20
21988;BME280;11158;53.404;-1.510;2022-07-01T07:16:20;100186.81;;;28.99;31.24
21988;BME280;11158;53.404;-1.510;2022-07-01T07:18:49;100186.59;;;27.54;33.29
21988;BME280;11158;53.404;-1.510;2022-07-01T07:21:16;100194.81;;;26.88;35.89
21988;BME280;11158;53.404;-1.510;2022-07-01T07:23:41;100190.88;;;26.13;36.09
21988;BME280;11158;53.404;-1.510;2022-07-01T07:26:09;100198.44;;;25.20;38.47
21988;BME280;11158;53.404;-1.510;2022-07-01T07:28:36;100198.75;;;24.14;40.44
21988;BME280;11158;53.404;-1.510;2022-07-01T07:31:01;100201.88;;;23.87;41.02
21988;BME280;11158;53.404;-1.510;2022-07-01T07:33:28;100198.66;;;23.44;42.79
21988;BME280;11158;53.404;-1.510;2022-07-01T07:35:54;100201.38;;;23.34;42.68
21988;BME280;11158;53.404;-1.510;2022-07-01T07:38:20;100194.28;;;23.17;42.67
21988;BME280;11158;53.404;-1.510;2022-07-01T07:40:46;100197.56;;;23.14;42.67
21988;BME280;11158;53.404;-1.510;2022-07-01T07:43:11;100196.31;;;24.13;41.00
21988;BME280;11158;53.404;-1.510;2022-07-01T07:45:37;100188.28;;;23.41;41.73
21988;BME280;11158;53.404;-1.510;2022-07-01T07:48:03;100196.41;;;22.74;43.44
21988;BME280;11158;53.404;-1.510;2022-07-01T07:50:31;100203.75;;;21.21;47.22
21988;BME280;11158;53.404;-1.510;2022-07-01T07:52:57;100208.00;;;20.79;48.07
21988;BME280;11158;53.404;-1.510;2022-07-01T07:55:23;100213.00;;;20.60;48.79
21988;BME280;11158;53.404;-1.510;2022-07-01T07:57:49;100214.91;;;21.19;47.13
21988;BME280;11158;53.404;-1.510;2022-07-01T08:00:16;100215.47;;;21.21;47.59
21988;BME280;11158;53.404;-1.510;2022-07-01T08:02:42;100209.88;;;21.38;46.61
21988;BME280;11158;53.404;-1.510;2022-07-01T08:05:10;100216.53;;;21.95;45.84
21988;BME280;11158;53.404;-1.510;2022-07-01T08:07:37;100210.69;;;21.76;46.51
21988;BME280;11158;53.404;-1.510;2022-07-01T08:10:04;100220.50;;;21.77;46.35
21988;BME280;11158;53.404;-1.510;2022-07-01T08:12:31;100226.66;;;22.05;45.87
21988;BME280;11158;53.404;-1.510;2022-07-01T08:14:56;100226.03;;;22.45;44.97
21988;BME280;11158;53.404;-1.510;2022-07-01T08:17:22;100227.41;;;22.58;44.16
21988;BME280;11158;53.404;-1.510;2022-07-01T08:19:48;100231.75;;;22.44;45.16
21988;BME280;11158;53.404;-1.510;2022-07-01T08:22:14;100231.56;;;22.66;43.38
21988;BME280;11158;53.404;-1.510;2022-07-01T08:24:40;100237.00;;;22.66;44.05
21988;BME280;11158;53.404;-1.510;2022-07-01T08:27:05;100238.44;;;23.04;43.25
21988;BME280;11158;53.404;-1.510;2022-07-01T08:29:31;100233.00;;;23.09;42.37
21988;BME280;11158;53.404;-1.510;2022-07-01T08:31:56;100233.44;;;22.60;44.01
21988;BME280;11158;53.404;-1.510;2022-07-01T08:34:22;100237.28;;;22.74;43.79
21988;BME280;11158;53.404;-1.510;2022-07-01T08:36:48;100240.41;;;22.35;43.37
21988;BME280;11158;53.404;-1.510;2022-07-01T08:39:13;100237.66;;;22.25;44.08
21988;BME280;11158;53.404;-1.510;2022-07-01T08:41:40;100240.41;;;22.35;44.64
21988;BME280;11158;53.404;-1.510;2022-07-01T08:44:07;100243.66;;;22.27;44.30
21988;BME280;11158;53.404;-1.510;2022-07-01T08:46:34;100245.53;;;23.10;43.21
21988;BME280;11158;53.404;-1.510;2022-07-01T08:49:01;100244.56;;;24.28;40.20
21988;BME280;11158;53.404;-1.510;2022-07-01T08:51:27;100242.69;;;24.28;40.43
21988;BME280;11158;53.404;-1.510;2022-07-01T08:53:52;100247.47;;;23.25;41.43
21988;BME280;11158;53.404;-1.510;2022-07-01T08:56:19;100247.13;;;23.93;40.11
21988;BME280;11158;53.404;-1.510;2022-07-01T08:59:03;100245.59;;;24.52;39.09
21988;BME280;11158;53.404;-1.510;2022-07-01T09:01:31;100241.44;;;24.65;38.58
21988;BME280;11158;53.404;-1.510;2022-07-01T09:04:13;100241.72;;;25.03;38.47
21988;BME280;11158;53.404;-1.510;2022-07-01T09:06:39;100249.03;;;24.08;39.12
21988;BME280;11158;53.404;-1.510;2022-07-01T09:09:19;100247.69;;;23.90;38.66
21988;BME280;11158;53.404;-1.510;2022-07-01T09:11:47;100254.00;;;23.60;39.56
21988;BME280;11158;53.404;-1.510;2022-07-01T09:14:22;100259.06;;;22.74;41.46
21988;BME280;11158;53.404;-1.510;2022-07-01T09:16:54;100267.22;;;22.06;42.58
21988;BME280;11158;53.404;-1.510;2022-07-01T09:19:22;100260.00;;;22.27;42.61
21988;BME280;11158;53.404;-1.510;2022-07-01T09:21:59;100256.06;;;22.76;41.48
21988;BME280;11158;53.404;-1.510;2022-07-01T09:29:31;100249.34;;;23.81;39.05
21988;BME280;11158;53.404;-1.510;2022-07-01T09:31:58;100259.72;;;24.64;37.44
21988;BME280;11158;53.404;-1.510;2022-07-01T09:34:24;100254.91;;;24.41;37.85
21988;BME280;11158;53.404;-1.510;2022-07-01T09:36:54;100261.09;;;23.40;39.46
21988;BME280;11158;53.404;-1.510;2022-07-01T09:39:24;100259.16;;;23.72;38.26
21988;BME280;11158;53.404;-1.510;2022-07-01T09:41:57;100261.34;;;23.65;39.07
21988;BME280;11158;53.404;-1.510;2022-07-01T09:44:23;100264.06;;;23.70;38.12
21988;BME280;11158;53.404;-1.510;2022-07-01T09:46:56;100263.81;;;23.40;38.38
21988;BME280;11158;53.404;-1.510;2022-07-01T09:49:23;100263.56;;;23.42;37.96
21988;BME280;11158;53.404;-1.510;2022-07-01T09:51:52;100268.84;;;24.34;36.95
21988;BME280;11158;53.404;-1.510;2022-07-01T09:54:18;100264.34;;;23.73;37.89
21988;BME280;11158;53.404;-1.510;2022-07-01T09:56:44;100258.56;;;24.11;37.30
21988;BME280;11158;53.404;-1.510;2022-07-01T09:59:12;100264.94;;;24.61;35.95
21988;BME280;11158;53.404;-1.510;2022-07-01T10:01:39;100260.31;;;24.56;35.64
21988;BME280;11158;53.404;-1.510;2022-07-01T10:04:07;100264.56;;;24.78;36.44
21988;BME280;11158;53.404;-1.510;2022-07-01T10:06:41;100251.78;;;25.76;35.49
21988;BME280;11158;53.404;-1.510;2022-07-01T10:14:27;100268.84;;;24.94;35.88
21988;BME280;11158;53.404;-1.510;2022-07-01T10:16:54;100264.44;;;24.54;36.18
21988;BME280;11158;53.404;-1.510;2022-07-01T10:21:46;100264.00;;;24.16;36.49
21988;BME280;11158;53.404;-1.510;2022-07-01T10:24:15;100261.38;;;23.75;36.92
21988;BME280;11158;53.404;-1.510;2022-07-01T10:26:41;100263.75;;;22.84;38.93
21988;BME280;11158;53.404;-1.510;2022-07-01T10:29:27;100252.66;;;23.37;37.13
21988;BME280;11158;53.404;-1.510;2022-07-01T10:31:54;100260.28;;;23.45;37.48
21988;BME280;11158;53.404;-1.510;2022-07-01T10:34:23;100260.00;;;23.36;36.95
21988;BME280;11158;53.404;-1.510;2022-07-01T10:37:05;100269.31;;;22.36;38.75
21988;BME280;11158;53.404;-1.510;2022-07-01T10:39:58;100274.44;;;23.16;37.67
21988;BME280;11158;53.404;-1.510;2022-07-01T10:42:32;100270.63;;;23.89;36.85
21988;BME280;11158;53.404;-1.510;2022-07-01T10:45:11;100278.78;;;24.04;35.03
21988;BME280;11158;53.404;-1.510;2022-07-01T10:47:38;100273.59;;;24.78;34.90
21988;BME280;11158;53.404;-1.510;2022-07-01T10:50:09;100279.91;;;23.21;36.13
21988;BME280;11158;53.404;-1.510;2022-07-01T10:52:36;100274.16;;;23.59;36.49
21988;BME280;11158;53.404;-1.510;2022-07-01T10:55:04;100287.00;;;23.84;36.29
21988;BME280;11158;53.404;-1.510;2022-07-01T10:57:40;100276.69;;;25.11;34.51
21988;BME280;11158;53.404;-1.510;2022-07-01T11:02:36;100267.88;;;25.54;34.08
21988;BME280;11158;53.404;-1.510;2022-07-01T11:05:13;100273.94;;;25.11;33.77
21988;BME280;11158;53.404;-1.510;2022-07-01T11:07:41;100274.63;;;24.93;33.96
21988;BME280;11158;53.404;-1.510;2022-07-01T11:10:10;100281.00;;;25.22;33.27
21988;BME280;11158;53.404;-1.510;2022-07-01T11:12:36;100274.34;;;24.29;34.79
21988;BME280;11158;53.404;-1.510;2022-07-01T11:15:03;100277.41;;;24.02;35.48
21988;BME280;11158;53.404;-1.510;2022-07-01T11:17:35;100275.38;;;24.43;33.96
21988;BME280;11158;53.404;-1.510;2022-07-01T11:20:02;100271.69;;;25.23;33.46
21988;BME280;11158;53.404;-1.510;2022-07-01T11:22:33;100271.25;;;25.06;33.01
21988;BME280;11158;53.404;-1.510;2022-07-01T11:25:12;100275.38;;;24.49;33.33
21988;BME280;11158;53.404;-1.510;2022-07-01T11:27:46;100275.81;;;23.29;34.20
21988;BME280;11158;53.404;-1.510;2022-07-01T11:30:13;100271.72;;;23.32;35.31
21988;BME280;11158;53.404;-1.510;2022-07-01T11:32:42;100277.06;;;24.29;34.16
21988;BME280;11158;53.404;-1.510;2022-07-01T11:35:13;100270.13;;;25.76;32.14
21988;BME280;11158;53.404;-1.510;2022-07-01T11:38:25;100261.91;;;25.46;32.11
21988;BME280;11158;53.404;-1.510;2022-07-01T11:41:18;100271.16;;;23.86;34.96
21988;BME280;11158;53.404;-1.510;2022-07-01T11:43:44;100277.41;;;24.02;35.50
21988;BME280;11158;53.404;-1.510;2022-07-01T11:46:11;100278.22;;;24.02;35.50
21988;BME280;11158;53.404;-1.510;2022-07-01T11:48:42;100271.72;;;23.83;35.20
21988;BME280;11158;53.404;-1.510;2022-07-01T11:51:10;100279.63;;;23.18;35.95
21988;BME280;11158;53.404;-1.510;2022-07-01T11:53:39;100269.53;;;23.24;36.27
21988;BME280;11158;53.404;-1.510;2022-07-01T11:56:05;100262.19;;;23.80;36.06
21988;BME280;11158;53.404;-1.510;2022-07-01T11:59:00;100269.72;;;24.14;35.21
21988;BME280;11158;53.404;-1.510;2022-07-01T12:01:32;100267.81;;;24.20;34.97
21988;BME280;11158;53.404;-1.510;2022-07-01T12:04:00;100278.81;;;23.17;37.00
21988;BME280;11158;53.404;-1.510;2022-07-01T12:06:28;100268.84;;;24.34;35.68
21988;BME280;11158;53.404;-1.510;2022-07-01T12:08:55;100266.75;;;24.76;34.61
21988;BME280;11158;53.404;-1.510;2022-07-01T12:11:24;100271.25;;;24.46;35.47
21988;BME280;11158;53.404;-1.510;2022-07-01T12:13:51;100271.38;;;24.80;34.74
21988;BME280;11158;53.404;-1.510;2022-07-01T12:16:18;100257.41;;;25.61;33.15
21988;BME280;11158;53.404;-1.510;2022-07-01T12:19:04;100258.56;;;24.76;32.91
21988;BME280;11158;53.404;-1.510;2022-07-01T12:21:30;100259.22;;;24.57;33.70
21988;BME280;11158;53.404;-1.510;2022-07-01T12:24:11;100274.47;;;23.57;34.85
21988;BME280;11158;53.404;-1.510;2022-07-01T12:29:27;100273.34;;;24.75;34.21
21988;BME280;11158;53.404;-1.510;2022-07-01T12:32:01;100267.25;;;24.83;34.62
21988;BME280;11158;53.404;-1.510;2022-07-01T12:37:03;100259.84;;;26.21;33.29
21988;BME280;11158;53.404;-1.510;2022-07-01T12:39:29;100267.84;;;25.59;33.17
21988;BME280;11158;53.404;-1.510;2022-07-01T12:41:57;100276.16;;;24.59;34.76
21988;BME280;11158;53.404;-1.510;2022-07-01T12:44:24;100275.88;;;24.61;34.87
21988;BME280;11158;53.404;-1.510;2022-07-01T12:46:50;100284.69;;;24.32;35.21
21988;BME280;11158;53.404;-1.510;2022-07-01T12:49:21;100287.41;;;24.42;35.45
21988;BME280;11158;53.404;-1.510;2022-07-01T12:51:47;100293.75;;;24.22;35.77
21988;BME280;11158;53.404;-1.510;2022-07-01T12:54:34;100289.66;;;24.10;35.46
21988;BME280;11158;53.404;-1.510;2022-07-01T12:57:02;100294.59;;;24.13;35.81
21988;BME280;11158;53.404;-1.510;2022-07-01T12:59:27;100292.13;;;24.21;36.16
21988;BME280;11158;53.404;-1.510;2022-07-01T13:01:54;100297.31;;;24.13;37.29
21988;BME280;11158;53.404;-1.510;2022-07-01T13:04:27;100300.09;;;23.92;37.94
21988;BME280;11158;53.404;-1.510;2022-07-01T13:06:54;100297.38;;;23.41;38.77